Time;durP1;ratioP1;P1;durP2;ratioP2;P2;SDS_P1;SDS_P2;PMS_P1;PMS_P2;Temp;Humidity;BMP_temperature;BMP_pressure;BME280_temperature;BME280_humidity;BME280_pressure;Samples;Min_cycle;Max_cycle;Signal;HPM_P1;HPM_P2
2021/01/09 00:00:28;;;;;;;60.70;39.53;;;5.80;90.70;;;;;;5076414;28;20115;-49
2021/01/09 00:02:54;;;;;;;59.67;40.17;;;5.80;90.80;;;;;;5075824;28;20043;-50
2021/01/09 00:05:20;;;;;;;66.13;40.75;;;5.80;90.60;;;;;;5076346;28;20107;-46
2021/01/09 00:07:46;;;;;;;53.10;38.28;;;5.70;90.60;;;;;;5076051;28;20028;-52
2021/01/09 00:10:11;;;;;;;50.08;38.03;;;5.70;91.10;;;;;;5075860;28;20032;-47
2021/01/09 00:12:39;;;;;;;51.55;37.80;;;5.60;91.10;;;;;;5075974;28;20107;-46
2021/01/09 00:15:07;;;;;;;55.30;39.53;;;5.60;91.20;;;;;;5076010;28;20038;-54
2021/01/09 00:17:33;;;;;;;45.80;34.97;;;5.50;91.20;;;;;;4990638;28;20412;-48
2021/01/09 00:19:59;;;;;;;67.45;51.78;;;5.50;91.30;;;;;;4991508;28;20036;-51
2021/01/09 00:22:25;;;;;;;57.10;41.90;;;5.50;91.50;;;;;;5076015;28;20035;-48
2021/01/09 00:24:51;;;;;;;60.70;42.83;;;5.50;91.60;;;;;;5075677;28;20028;-48
2021/01/09 00:27:17;;;;;;;57.63;43.42;;;5.60;91.40;;;;;;5075733;28;20025;-47
2021/01/09 00:29:44;;;;;;;55.03;40.22;;;5.60;91.50;;;;;;5075292;28;20032;-49
2021/01/09 00:32:10;;;;;;;50.10;36.17;;;5.60;91.80;;;;;;5075809;28;20495;-49
2021/01/09 00:34:36;;;;;;;51.08;38.78;;;5.70;91.70;;;;;;5075414;28;20027;-49
2021/01/09 00:37:02;;;;;;;55.42;39.88;;;5.70;91.50;;;;;;5075128;28;20044;-52
2021/01/09 00:39:28;;;;;;;58.17;40.70;;;5.70;91.60;;;;;;5075382;28;20032;-52
2021/01/09 00:41:54;;;;;;;79.03;47.13;;;5.70;92.00;;;;;;5075423;28;20396;-51
2021/01/09 00:44:20;;;;;;;93.15;45.83;;;5.70;92.10;;;;;;5075322;28;20420;-51
2021/01/09 00:46:46;;;;;;;216.75;51.50;;;5.80;91.70;;;;;;5075291;28;20108;-50
2021/01/09 00:49:12;;;;;;;301.67;57.25;;;5.90;91.60;;;;;;5056983;28;20028;-50
2021/01/09 00:51:37;;;;;;;324.52;57.35;;;5.90;91.50;;;;;;5075430;28;20031;-49
2021/01/09 00:54:03;;;;;;;404.15;61.35;;;5.80;91.40;;;;;;5075165;28;20032;-52
2021/01/09 00:56:29;;;;;;;315.20;53.30;;;5.90;91.30;;;;;;5075184;28;20028;-48
2021/01/09 00:58:55;;;;;;;387.85;63.00;;;5.90;91.10;;;;;;5075068;28;20061;-53
2021/01/09 01:01:20;;;;;;;461.50;67.30;;;5.80;91.30;;;;;;5075035;28;20024;-50
2021/01/09 01:03:46;;;;;;;311.88;58.85;;;5.80;91.40;;;;;;5039999;28;20131;-52
2021/01/09 01:06:12;;;;;;;271.15;55.40;;;5.80;91.20;;;;;;5074613;28;20036;-50
2021/01/09 01:08:38;;;;;;;410.15;61.97;;;5.70;91.20;;;;;;5039684;28;20037;-48
2021/01/09 01:11:09;;;;;;;364.25;56.20;;;5.70;91.40;;;;;;5074876;28;20051;-49
2021/01/09 01:13:34;;;;;;;326.13;50.25;;;5.70;91.00;;;;;;5039916;28;20108;-49
2021/01/09 01:16:00;;;;;;;405.38;53.17;;;5.70;90.80;;;;;;5074686;28;20487;-51
2021/01/09 01:18:26;;;;;;;414.45;53.35;;;5.70;90.60;;;;;;5039899;28;20048;-51
2021/01/09 01:20:52;;;;;;;444.25;55.63;;;5.60;90.50;;;;;;5074544;28;20418;-49
2021/01/09 01:23:18;;;;;;;363.00;49.30;;;5.60;90.60;;;;;;5039335;28;20052;-52
2021/01/09 01:25:44;;;;;;;218.35;54.42;;;5.60;90.70;;;;;;5074635;28;20537;-48
2021/01/09 01:28:10;;;;;;;158.27;43.78;;;5.50;90.50;;;;;;5074473;28;20028;-49
2021/01/09 01:30:36;;;;;;;241.10;44.80;;;5.40;90.90;;;;;;5074591;28;20050;-50
2021/01/09 01:33:03;;;;;;;316.73;46.25;;;5.40;90.90;;;;;;5074662;28;20024;-51
2021/01/09 01:35:31;;;;;;;159.77;42.60;;;5.40;90.80;;;;;;5074552;28;20111;-53
2021/01/09 01:37:56;;;;;;;125.53;38.47;;;5.50;90.90;;;;;;5039330;28;20028;-48
2021/01/09 01:40:24;;;;;;;125.00;38.72;;;5.50;90.70;;;;;;5039510;28;20545;-49
2021/01/09 01:42:51;;;;;;;82.10;36.75;;;5.50;90.70;;;;;;5074150;28;20033;-51
2021/01/09 01:45:17;;;;;;;86.13;37.53;;;5.40;90.70;;;;;;5074411;28;20033;-51
2021/01/09 01:47:43;;;;;;;68.25;37.60;;;5.40;90.70;;;;;;5073948;28;20024;-51
2021/01/09 01:50:10;;;;;;;54.15;35.75;;;5.40;90.70;;;;;;5073996;28;20456;-50
2021/01/09 01:52:36;;;;;;;55.17;36.28;;;5.30;91.10;;;;;;5073873;28;20031;-49
2021/01/09 01:55:02;;;;;;;100.97;50.88;;;5.30;91.00;;;;;;5074077;28;20111;-54
2021/01/09 01:57:29;;;;;;;62.22;37.35;;;5.20;90.90;;;;;;5073934;28;20028;-49
2021/01/09 01:59:54;;;;;;;62.55;40.45;;;5.20;90.60;;;;;;5073947;28;20033;-49
2021/01/09 02:02:20;;;;;;;71.03;40.58;;;5.20;90.80;;;;;;5073746;28;20090;-49
2021/01/09 02:04:58;;;;;;;69.68;41.25;;;5.10;91.00;;;;;;5073950;28;20048;-52
2021/01/09 02:07:30;;;;;;;179.85;56.08;;;5.00;91.10;;;;;;5073717;28;20040;-52
2021/01/09 02:09:57;;;;;;;116.15;58.70;;;4.90;90.70;;;;;;5073818;28;20024;-52
2021/01/09 02:12:30;;;;;;;94.72;49.65;;;4.80;90.80;;;;;;5073693;28;20138;-50
2021/01/09 02:14:57;;;;;;;101.97;61.42;;;4.60;90.50;;;;;;5038640;28;20106;-48
2021/01/09 02:17:23;;;;;;;66.85;47.08;;;4.50;91.50;;;;;;5038771;28;20032;-49
2021/01/09 02:19:50;;;;;;;68.93;49.10;;;4.60;91.10;;;;;;5073372;28;20047;-49
2021/01/09 02:22:17;;;;;;;62.20;45.13;;;4.70;91.10;;;;;;5073422;28;20071;-50
2021/01/09 02:24:44;;;;;;;74.20;48.50;;;4.60;91.30;;;;;;5073624;28;20036;-54
2021/01/09 02:27:10;;;;;;;62.55;41.85;;;4.60;91.20;;;;;;5073584;28;20048;-50
2021/01/09 02:29:47;;;;;;;54.90;38.40;;;4.80;91.10;;;;;;5073198;28;20035;-50
2021/01/09 02:32:17;;;;;;;52.60;37.78;;;4.80;91.30;;;;;;5073374;28;20120;-49
2021/01/09 02:34:50;;;;;;;54.33;37.60;;;4.90;90.80;;;;;;5073542;28;20029;-52
2021/01/09 02:37:16;;;;;;;49.92;35.78;;;4.90;90.70;;;;;;5073397;28;20029;-49
2021/01/09 02:39:42;;;;;;;51.50;36.20;;;4.90;90.80;;;;;;5073440;28;20082;-54
2021/01/09 02:42:08;;;;;;;50.65;36.63;;;5.00;90.50;;;;;;5073304;28;20035;-49
2021/01/09 02:44:34;;;;;;;49.90;36.92;;;5.00;90.60;;;;;;5073370;28;20411;-49
2021/01/09 02:47:00;;;;;;;47.05;35.88;;;5.00;90.40;;;;;;5073256;28;20028;-48
2021/01/09 02:49:26;;;;;;;57.20;39.22;;;5.00;90.60;;;;;;5073507;28;20025;-48
2021/01/09 02:51:51;;;;;;;53.88;38.97;;;4.80;91.10;;;;;;5073242;28;20512;-50
2021/01/09 02:54:17;;;;;;;58.40;41.35;;;4.60;91.70;;;;;;5073051;28;20025;-49
2021/01/09 02:56:43;;;;;;;57.83;40.92;;;4.30;92.50;;;;;;5073166;28;20052;-52
2021/01/09 02:59:08;;;;;;;57.42;40.42;;;4.30;92.60;;;;;;5073462;28;20423;-52
2021/01/09 03:01:34;;;;;;;57.60;40.88;;;4.30;92.80;;;;;;5054772;28;20124;-49
2021/01/09 03:04:00;;;;;;;54.38;38.97;;;;;;;;;;5073198;28;20035;-49
2021/01/09 03:06:26;;;;;;;59.58;41.78;;;4.60;91.90;;;;;;5073106;28;20466;-51
2021/01/09 03:08:52;;;;;;;58.60;41.35;;;4.50;92.40;;;;;;5073128;28;20035;-47
2021/01/09 03:11:19;;;;;;;64.50;41.58;;;;;;;;;;5072894;28;20429;-51
2021/01/09 03:13:45;;;;;;;96.25;41.78;;;4.80;91.70;;;;;;5073219;28;20032;-51
2021/01/09 03:16:11;;;;;;;66.65;39.63;;;4.90;91.90;;;;;;5072990;28;20120;-50
2021/01/09 03:18:36;;;;;;;59.58;39.38;;;4.90;91.70;;;;;;5072967;28;20052;-49
2021/01/09 03:21:03;;;;;;;63.25;39.85;;;5.00;91.50;;;;;;5072895;28;20029;-52
2021/01/09 03:23:28;;;;;;;63.70;38.80;;;5.00;91.40;;;;;;5072832;28;20419;-53
2021/01/09 03:25:54;;;;;;;60.47;39.78;;;5.00;91.30;;;;;;5038045;28;20087;-50
2021/01/09 03:28:20;;;;;;;65.05;41.50;;;5.00;91.00;;;;;;5072939;28;20361;-48
2021/01/09 03:30:46;;;;;;;66.20;44.10;;;5.00;91.00;;;;;;5072933;28;20049;-49
2021/01/09 03:33:12;;;;;;;70.13;43.63;;;5.00;90.90;;;;;;5076846;28;20448;-50
2021/01/09 03:35:38;;;;;;;61.97;41.40;;;5.00;90.80;;;;;;5076561;28;20127;-50
2021/01/09 03:38:03;;;;;;;63.05;41.38;;;5.10;91.00;;;;;;5076548;28;20100;-50
2021/01/09 03:40:29;;;;;;;60.90;39.78;;;5.10;90.90;;;;;;5076403;28;20020;-49
2021/01/09 03:42:55;;;;;;;59.22;40.38;;;5.10;91.00;;;;;;5041169;28;20037;-49
2021/01/09 03:45:21;;;;;;;59.63;39.67;;;5.00;91.20;;;;;;5076650;28;20028;-49
2021/01/09 03:47:47;;;;;;;59.65;39.95;;;5.00;91.10;;;;;;5041392;28;20105;-53
2021/01/09 03:50:12;;;;;;;57.55;39.00;;;5.00;91.10;;;;;;5076498;28;20048;-51
2021/01/09 03:52:38;;;;;;;63.20;40.85;;;4.70;91.30;;;;;;5041222;28;20037;-52
2021/01/09 03:55:04;;;;;;;59.60;41.00;;;4.70;91.20;;;;;;5076348;28;20060;-48
2021/01/09 03:57:30;;;;;;;62.90;41.63;;;4.60;91.40;;;;;;5040803;28;20483;-53
2021/01/09 03:59:56;;;;;;;64.85;41.83;;;4.40;91.90;;;;;;5076091;28;20032;-50
2021/01/09 04:02:21;;;;;;;58.92;39.80;;;4.40;91.50;;;;;;5076126;28;20048;-50
2021/01/09 04:04:47;;;;;;;64.13;40.42;;;4.30;91.80;;;;;;5076082;28;20035;-52
2021/01/09 04:07:13;;;;;;;64.15;40.83;;;4.40;91.50;;;;;;5040967;28;20067;-53
2021/01/09 04:09:39;;;;;;;56.58;37.67;;;4.40;91.40;;;;;;5076137;28;20033;-50
2021/01/09 04:12:05;;;;;;;56.83;38.75;;;4.40;91.60;;;;;;5076029;28;20028;-49
2021/01/09 04:14:30;;;;;;;63.08;40.45;;;4.50;91.70;;;;;;5075865;28;20028;-50
2021/01/09 04:16:56;;;;;;;58.78;39.58;;;4.50;91.60;;;;;;5076010;28;20034;-48
2021/01/09 04:19:22;;;;;;;59.97;39.85;;;4.60;91.60;;;;;;5075785;28;20028;-52
2021/01/09 04:21:51;;;;;;;68.82;40.90;;;4.60;91.40;;;;;;5075951;28;20357;-50
2021/01/09 04:24:21;;;;;;;67.32;41.55;;;4.40;91.60;;;;;;5076090;28;20028;-51
2021/01/09 04:26:59;;;;;;;64.20;41.15;;;4.10;92.30;;;;;;5075644;28;20031;-52
2021/01/09 04:29:25;;;;;;;72.63;42.63;;;4.10;92.40;;;;;;5075540;28;20055;-50
2021/01/09 04:31:52;;;;;;;62.45;41.00;;;3.80;93.20;;;;;;5075460;28;20102;-51
2021/01/09 04:34:18;;;;;;;63.03;38.00;;;3.80;93.10;;;;;;5075557;28;20107;-49
2021/01/09 04:36:44;;;;;;;66.28;41.70;;;3.70;93.40;;;;;;5075457;28;20035;-50
2021/01/09 04:39:10;;;;;;;146.00;46.25;;;3.50;93.90;;;;;;5075389;28;20064;-51
2021/01/09 04:41:37;;;;;;;81.53;39.40;;;3.80;94.00;;;;;;5075369;28;20031;-50
2021/01/09 04:44:04;;;;;;;88.82;38.65;;;4.00;93.40;;;;;;5074563;28;20032;-50
2021/01/09 04:46:55;;;;;;;158.07;41.65;;;4.20;93.10;;;;;;5075421;28;20372;-51
2021/01/09 04:49:23;;;;;;;331.77;46.55;;;4.30;92.70;;;;;;5075377;28;20025;-51
2021/01/09 04:51:49;;;;;;;338.52;44.55;;;4.20;93.00;;;;;;5039987;28;20036;-49
2021/01/09 04:54:18;;;;;;;205.93;43.28;;;4.20;92.90;;;;;;5075208;28;20392;-49
2021/01/09 04:56:46;;;;;;;308.10;44.67;;;4.10;93.20;;;;;;5075164;28;20032;-50
2021/01/09 04:59:12;;;;;;;545.40;56.22;;;3.90;93.50;;;;;;5040028;28;20039;-50
2021/01/09 05:01:41;;;;;;;313.63;44.38;;;4.10;93.40;;;;;;5039855;28;20384;-48
2021/01/09 05:04:06;;;;;;;559.00;53.92;;;3.60;94.00;;;;;;5075144;28;20028;-49
2021/01/09 05:06:32;;;;;;;286.83;36.15;;;3.60;94.20;;;;;;5074989;28;20104;-52
2021/01/09 05:08:58;;;;;;;548.80;55.25;;;3.30;94.50;;;;;;5075041;28;20020;-49
2021/01/09 05:11:23;;;;;;;343.75;44.45;;;3.40;94.70;;;;;;5074836;28;20024;-49
2021/01/09 05:13:49;;;;;;;512.17;54.90;;;3.20;94.90;;;;;;5074824;28;20025;-51
2021/01/09 05:16:15;;;;;;;529.17;52.85;;;3.20;95.20;;;;;;5074807;28;20039;-48
2021/01/09 05:18:41;;;;;;;652.35;61.42;;;3.10;95.20;;;;;;5074683;28;20074;-51
2021/01/09 05:21:10;;;;;;;339.73;44.60;;;3.30;95.00;;;;;;5074511;28;20514;-48
2021/01/09 05:23:51;;;;;;;481.92;50.72;;;2.90;95.60;;;;;;5074311;28;20500;-47
2021/01/09 05:26:21;;;;;;;502.20;53.83;;;3.00;95.90;;;;;;5074523;28;20024;-51
2021/01/09 05:29:06;;;;;;;304.65;44.33;;;3.10;95.50;;;;;;5074402;28;20024;-50
2021/01/09 05:31:35;;;;;;;299.02;44.83;;;3.10;94.90;;;;;;5074291;28;20063;-48
2021/01/09 05:34:02;;;;;;;188.00;28.52;;;2.90;95.70;;;;;;5074312;28;20024;-51
2021/01/09 05:36:28;;;;;;;379.83;49.25;;;2.70;95.70;;;;;;5074387;28;20025;-50
2021/01/09 05:38:53;;;;;;;389.90;46.20;;;2.90;95.90;;;;;;5074230;28;20369;-49
2021/01/09 05:41:21;;;;;;;297.73;42.88;;;3.20;95.20;;;;;;5074136;28;20025;-50
2021/01/09 05:43:57;;;;;;;349.35;45.88;;;3.40;94.70;;;;;;5039194;28;20036;-50
2021/01/09 05:46:23;;;;;;;326.92;41.38;;;3.40;94.40;;;;;;5071040;28;20039;-48
2021/01/09 05:48:49;;;;;;;274.40;37.45;;;3.60;94.20;;;;;;5074111;28;20029;-51
2021/01/09 05:51:17;;;;;;;239.43;36.50;;;3.40;93.80;;;;;;5073984;28;20111;-51
2021/01/09 05:53:44;;;;;;;394.90;47.63;;;3.10;95.20;;;;;;5074066;28;20031;-51
2021/01/09 05:56:12;;;;;;;249.88;35.13;;;3.30;94.50;;;;;;5073998;28;20028;-51
2021/01/09 05:58:38;;;;;;;284.50;41.92;;;3.30;94.00;;;;;;5074130;28;20115;-49
2021/01/09 06:01:09;;;;;;;202.75;40.92;;;3.30;94.30;;;;;;5073817;28;20074;-49
2021/01/09 06:03:44;;;;;;;404.52;45.33;;;3.10;95.60;;;;;;5073839;28;20040;-52
2021/01/09 06:06:32;;;;;;;405.15;46.20;;;3.20;95.30;;;;;;5038848;28;20062;-49
2021/01/09 06:09:00;;;;;;;273.98;41.00;;;3.40;94.00;;;;;;5038690;28;20115;-48
2021/01/09 06:11:38;;;;;;;243.20;36.83;;;3.60;93.90;;;;;;5073602;28;20024;-50
2021/01/09 06:14:06;;;;;;;332.17;42.50;;;3.50;93.60;;;;;;5038753;28;20369;-51
2021/01/09 06:16:35;;;;;;;215.02;38.78;;;3.40;94.20;;;;;;5073847;28;20055;-51
2021/01/09 06:19:01;;;;;;;360.95;42.70;;;3.40;94.20;;;;;;5073743;28;20094;-48
2021/01/09 06:21:28;;;;;;;306.05;42.28;;;3.50;94.10;;;;;;5038334;28;20056;-52
2021/01/09 06:23:59;;;;;;;215.23;39.65;;;3.70;93.90;;;;;;5073486;28;20036;-52
2021/01/09 06:26:26;;;;;;;252.15;39.50;;;3.80;93.40;;;;;;5073592;28;20023;-50
2021/01/09 06:28:58;;;;;;;292.52;40.80;;;3.70;93.40;;;;;;5073589;28;20436;-52
2021/01/09 06:31:28;;;;;;;295.77;42.00;;;3.80;92.90;;;;;;5073284;28;20496;-51
2021/01/09 06:33:57;;;;;;;107.28;30.83;;;3.80;93.20;;;;;;5022003;28;20044;-49
2021/01/09 06:36:25;;;;;;;46.08;20.80;;;3.90;92.80;;;;;;5073721;28;20042;-50
2021/01/09 06:38:53;;;;;;;142.48;33.10;;;3.70;92.50;;;;;;5073725;28;20024;-49
2021/01/09 06:41:21;;;;;;;143.05;30.90;;;3.80;92.60;;;;;;5038928;28;20040;-49
2021/01/09 06:43:49;;;;;;;197.05;33.70;;;3.90;92.40;;;;;;5073171;28;20399;-51
2021/01/09 06:46:30;;;;;;;164.35;36.05;;;3.90;92.30;;;;;;5073328;28;20029;-52
2021/01/09 06:48:56;;;;;;;297.98;41.80;;;3.90;92.60;;;;;;5038350;28;20049;-52
2021/01/09 06:51:38;;;;;;;241.55;43.20;;;3.70;93.20;;;;;;5073590;28;20063;-51
2021/01/09 06:54:18;;;;;;;178.82;35.88;;;3.80;92.70;;;;;;5051295;28;20036;-48
2021/01/09 06:57:06;;;;;;;263.45;38.22;;;3.80;92.60;;;;;;5073251;28;20040;-49
2021/01/09 06:59:33;;;;;;;271.85;38.50;;;3.90;92.80;;;;;;5073483;28;20040;-51
2021/01/09 07:02:15;;;;;;;199.05;36.95;;;3.70;92.80;;;;;;5072511;28;20074;-51
2021/01/09 07:05:19;;;;;;;285.30;44.47;;;3.70;93.30;;;;;;5072019;28;20037;-52
2021/01/09 07:07:56;;;;;;;229.20;49.10;;;3.70;93.50;;;;;;4993910;28;20507;-52
2021/01/09 07:10:26;;;;;;;259.20;39.25;;;3.80;93.30;;;;;;4986584;28;20035;-52
2021/01/09 07:13:06;;;;;;;147.10;31.08;;;4.00;92.90;;;;;;4976628;28;20053;-52
2021/01/09 07:15:35;;;;;;;280.45;44.45;;;4.10;92.60;;;;;;4974801;28;20031;-49
2021/01/09 07:18:04;;;;;;;237.60;38.05;;;4.30;92.60;;;;;;4974863;28;20562;-57
2021/01/09 07:20:44;;;;;;;274.35;49.28;;;4.30;92.10;;;;;;4942801;28;20126;-55
2021/01/09 07:23:14;;;;;;;337.52;50.30;;;4.40;91.90;;;;;;4983470;28;20318;-53
2021/01/09 07:25:43;;;;;;;206.48;37.60;;;4.40;91.70;;;;;;4985675;28;20038;-59
2021/01/09 07:28:13;;;;;;;248.65;53.03;;;4.20;91.50;;;;;;4994006;28;20520;-64
2021/01/09 07:30:39;;;;;;;217.02;38.65;;;4.30;92.20;;;;;;4993900;28;20054;-59
2021/01/09 07:33:11;;;;;;;213.02;38.33;;;4.30;91.80;;;;;;4994122;28;20121;-62
2021/01/09 07:35:42;;;;;;;241.15;44.05;;;4.40;91.50;;;;;;4993979;28;20526;-63
2021/01/09 07:38:09;;;;;;;199.77;44.75;;;4.50;91.60;;;;;;4994010;28;20054;-65
2021/01/09 07:40:50;;;;;;;221.02;46.75;;;4.60;91.20;;;;;;4997208;28;20054;-59
2021/01/09 07:43:34;;;;;;;240.10;47.63;;;4.70;91.30;;;;;;5006920;28;20073;-60
2021/01/09 07:46:01;;;;;;;247.55;43.78;;;4.70;91.00;;;;;;5090748;28;20030;-59
2021/01/09 07:48:34;;;;;;;214.27;41.22;;;4.70;90.70;;;;;;5059718;28;20403;-61
2021/01/09 07:51:00;;;;;;;243.93;49.03;;;4.80;90.40;;;;;;5059902;28;20089;-59
2021/01/09 07:53:27;;;;;;;176.25;55.83;;;4.70;90.80;;;;;;5060197;28;20036;-57
2021/01/09 07:55:53;;;;;;;254.60;64.55;;;4.60;91.40;;;;;;5059637;28;20032;-57
2021/01/09 07:58:45;;;;;;;223.82;43.00;;;4.60;91.60;;;;;;5059851;28;20042;-54
2021/01/09 08:01:11;;;;;;;195.82;42.08;;;4.70;91.30;;;;;;5095342;28;20532;-58
2021/01/09 08:03:40;;;;;;;195.45;46.45;;;4.70;91.20;;;;;;5095311;28;20040;-58
2021/01/09 08:06:06;;;;;;;159.73;49.90;;;4.70;91.20;;;;;;5095322;28;20353;-61
2021/01/09 08:08:32;;;;;;;131.38;47.75;;;4.90;91.30;;;;;;5095169;28;20039;-59
2021/01/09 08:11:02;;;;;;;172.10;42.42;;;4.70;91.50;;;;;;5092671;28;20040;-60
2021/01/09 08:13:28;;;;;;;244.43;62.78;;;4.80;90.60;;;;;;5095262;28;20032;-58
2021/01/09 08:15:54;;;;;;;193.30;43.78;;;4.90;90.80;;;;;;5095149;28;20036;-58
2021/01/09 08:18:20;;;;;;;184.93;40.75;;;5.10;90.50;;;;;;5093788;28;20035;-59
2021/01/09 08:20:49;;;;;;;146.82;46.55;;;5.10;90.10;;;;;;5094861;28;20384;-57
2021/01/09 08:23:15;;;;;;;126.05;47.60;;;5.20;90.30;;;;;;5094738;28;20063;-59
2021/01/09 08:25:44;;;;;;;124.72;39.70;;;5.30;89.50;;;;;;5095044;28;20476;-59
2021/01/09 08:28:11;;;;;;;89.57;40.58;;;5.50;92.70;;;;;;5095013;28;20550;-60
2021/01/09 08:30:39;;;;;;;81.47;43.45;;;5.50;93.00;;;;;;5094545;28;20507;-59
2021/01/09 08:33:10;;;;;;;81.78;43.95;;;5.60;91.70;;;;;;5094720;28;20099;-60
2021/01/09 08:35:47;;;;;;;77.75;48.10;;;5.60;93.90;;;;;;5094254;28;20032;-60
2021/01/09 08:38:13;;;;;;;83.53;50.13;;;5.60;94.20;;;;;;5094526;28;20039;-62
2021/01/09 08:40:42;;;;;;;87.05;49.97;;;5.30;90.10;;;;;;5058850;28;20032;-59
2021/01/09 08:43:12;;;;;;;86.28;51.55;;;5.50;92.60;;;;;;5094075;28;20040;-58
2021/01/09 08:45:52;;;;;;;86.60;48.05;;;5.70;93.30;;;;;;5094336;28;20426;-62
2021/01/09 08:48:22;;;;;;;87.60;46.03;;;5.60;89.10;;;;;;5058779;28;20121;-60
2021/01/09 08:51:01;;;;;;;68.68;41.80;;;5.60;88.70;;;;;;5091163;28;20028;-60
2021/01/09 08:53:30;;;;;;;100.53;54.33;;;5.60;88.40;;;;;;5058750;28;20436;-60
2021/01/09 08:56:02;;;;;;;70.88;40.67;;;5.50;88.00;;;;;;5094392;28;20035;-60
2021/01/09 08:58:33;;;;;;;66.38;42.63;;;5.50;88.00;;;;;;5035786;28;20066;-61
2021/01/09 09:01:06;;;;;;;61.72;42.83;;;5.50;88.30;;;;;;5082293;28;20658;-61
2021/01/09 09:03:35;;;;;;;62.67;42.83;;;5.60;88.50;;;;;;5082729;28;20036;-57
2021/01/09 09:06:09;;;;;;;70.95;46.15;;;5.70;88.00;;;;;;5063819;28;20403;-56
2021/01/09 09:08:35;;;;;;;64.55;45.70;;;5.50;88.60;;;;;;5082499;28;20020;-60
2021/01/09 09:11:03;;;;;;;72.50;47.65;;;5.80;88.50;;;;;;5082379;28;20549;-61
2021/01/09 09:13:29;;;;;;;61.65;42.63;;;5.60;89.10;;;;;;5081514;28;20028;-59
2021/01/09 09:15:55;;;;;;;131.85;77.45;;;5.60;88.00;;;;;;5083251;28;20032;-56
2021/01/09 09:18:21;;;;;;;77.15;54.65;;;5.60;88.30;;;;;;5077154;28;20024;-48
2021/01/09 09:20:49;;;;;;;90.38;66.88;;;5.60;89.80;;;;;;5046053;28;20496;-48
2021/01/09 09:23:20;;;;;;;63.28;44.65;;;5.60;87.90;;;;;;5083123;28;20039;-50
2021/01/09 09:26:01;;;;;;;56.90;39.97;;;5.50;87.70;;;;;;5047841;28;20036;-52
2021/01/09 09:28:28;;;;;;;61.03;39.65;;;5.70;86.70;;;;;;5083823;28;20028;-47
2021/01/09 09:30:54;;;;;;;54.67;39.20;;;5.90;88.10;;;;;;5081014;28;20048;-51
2021/01/09 09:33:20;;;;;;;64.60;46.15;;;6.10;86.50;;;;;;5073099;28;20035;-50
2021/01/09 09:35:45;;;;;;;60.45;41.92;;;5.90;86.80;;;;;;5073122;28;20032;-51
2021/01/09 09:38:11;;;;;;;64.32;44.65;;;6.10;88.00;;;;;;5072886;28;20040;-52
2021/01/09 09:40:39;;;;;;;54.67;38.80;;;6.80;89.60;;;;;;5021183;28;20048;-53
2021/01/09 09:43:13;;;;;;;57.17;42.33;;;7.10;85.70;;;;;;5072275;28;20496;-50
2021/01/09 09:45:40;;;;;;;52.22;36.08;;;7.80;85.20;;;;;;5037266;28;20085;-54
2021/01/09 09:48:06;;;;;;;57.58;44.28;;;7.90;82.40;;;;;;5072771;28;20033;-54
2021/01/09 09:50:35;;;;;;;54.33;41.75;;;;;;;;;;5072852;28;20036;-51
2021/01/09 09:53:05;;;;;;;45.08;35.60;;;9.30;93.40;;;;;;5073012;28;20384;-56
2021/01/09 09:55:31;;;;;;;55.08;39.22;;;;;;;;;;5054503;28;20485;-55
2021/01/09 09:58:04;;;;;;;71.38;45.47;;;9.10;77.20;;;;;;5072675;28;20103;-55
2021/01/09 10:00:30;;;;;;;45.85;33.70;;;8.70;78.70;;;;;;5072644;28;20028;-52
2021/01/09 10:02:56;;;;;;;44.22;33.13;;;8.70;88.50;;;;;;5010475;28;20084;-52
2021/01/09 10:05:23;;;;;;;46.10;33.00;;;8.60;88.50;;;;;;5010483;28;20049;-54
2021/01/09 10:07:50;;;;;;;44.13;33.10;;;8.60;89.30;;;;;;5010362;28;20042;-56
2021/01/09 10:10:18;;;;;;;44.10;32.50;;;8.60;77.10;;;;;;4977882;28;20041;-53
2021/01/09 10:12:57;;;;;;;42.95;32.30;;;;;;;;;;5010618;28;20410;-54
2021/01/09 10:15:23;;;;;;;46.10;32.25;;;8.80;74.00;;;;;;5010661;28;20165;-53
2021/01/09 10:17:56;;;;;;;45.45;32.50;;;8.80;75.50;;;;;;5010466;28;20041;-55
2021/01/09 10:20:22;;;;;;;47.72;36.55;;;8.40;77.50;;;;;;5010553;28;20125;-53
2021/01/09 10:22:47;;;;;;;65.97;46.65;;;8.50;75.90;;;;;;5010422;28;20165;-54
2021/01/09 10:25:13;;;;;;;44.47;31.92;;;8.60;76.30;;;;;;5010314;28;20454;-53
2021/01/09 10:27:39;;;;;;;43.03;31.75;;;8.70;75.60;;;;;;5010433;28;20069;-56
2021/01/09 10:30:06;;;;;;;47.35;31.88;;;8.80;74.70;;;;;;5010237;28;20133;-56
2021/01/09 10:32:31;;;;;;;44.33;31.92;;;8.70;76.30;;;;;;5010066;28;20046;-51
2021/01/09 10:34:57;;;;;;;41.97;30.25;;;8.80;75.20;;;;;;5067429;28;20098;-45
2021/01/09 10:37:23;;;;;;;46.70;34.30;;;8.80;73.70;;;;;;5072101;28;20047;-52
2021/01/09 10:39:49;;;;;;;49.92;36.60;;;8.80;74.30;;;;;;5072236;28;20024;-55
2021/01/09 10:42:14;;;;;;;49.33;34.10;;;8.80;74.50;;;;;;5019277;28;20040;-52
2021/01/09 10:44:41;;;;;;;53.65;38.65;;;8.80;74.70;;;;;;5068517;28;20028;-48
2021/01/09 10:47:07;;;;;;;44.13;32.40;;;8.40;75.60;;;;;;5071458;28;20502;-53
2021/01/09 10:49:32;;;;;;;44.42;30.80;;;7.80;78.10;;;;;;5053264;28;20041;-56
2021/01/09 10:51:58;;;;;;;44.65;33.13;;;8.00;78.30;;;;;;5071518;28;20103;-54
2021/01/09 10:54:24;;;;;;;48.75;33.80;;;8.10;77.80;;;;;;4979996;28;20033;-53
2021/01/09 10:56:50;;;;;;;37.70;28.52;;;8.30;76.70;;;;;;5029221;28;20040;-59
2021/01/09 10:59:15;;;;;;;39.55;29.20;;;8.20;75.00;;;;;;5029035;28;20069;-55
2021/01/09 11:01:41;;;;;;;42.75;30.40;;;7.90;76.30;;;;;;5029573;28;20029;-49
2021/01/09 11:04:07;;;;;;;44.22;31.80;;;7.90;77.50;;;;;;5028840;28;20387;-47
2021/01/09 11:06:33;;;;;;;43.70;32.83;;;7.80;77.30;;;;;;5029511;28;20588;-52
2021/01/09 11:08:59;;;;;;;41.25;30.20;;;7.70;77.30;;;;;;5029476;28;20763;-48
2021/01/09 11:11:24;;;;;;;39.85;29.70;;;7.70;77.50;;;;;;5029552;28;20037;-58
2021/01/09 11:13:50;;;;;;;60.90;43.95;;;7.90;77.60;;;;;;5027218;28;20038;-48
2021/01/09 11:16:20;;;;;;;44.15;33.10;;;7.90;77.60;;;;;;5029189;28;20038;-49
2021/01/09 11:18:47;;;;;;;40.88;30.33;;;8.00;77.40;;;;;;5012581;28;20501;-55
2021/01/09 11:21:13;;;;;;;68.47;45.42;;;8.10;76.90;;;;;;5012970;28;20065;-52
2021/01/09 11:23:42;;;;;;;58.42;40.50;;;8.10;77.80;;;;;;5028801;28;20037;-50
2021/01/09 11:26:08;;;;;;;50.42;36.75;;;7.70;79.40;;;;;;5079010;28;20123;-51
2021/01/09 11:28:34;;;;;;;98.53;60.83;;;7.90;79.40;;;;;;5091442;28;20464;-52
2021/01/09 11:31:00;;;;;;;66.22;50.50;;;8.10;80.10;;;;;;5091592;28;20044;-53
2021/01/09 11:33:25;;;;;;;60.35;46.88;;;8.80;79.80;;;;;;5055901;28;20036;-51
2021/01/09 11:35:51;;;;;;;59.08;43.28;;;9.50;79.20;;;;;;5091858;28;20032;-52
2021/01/09 11:38:17;;;;;;;84.07;56.47;;;;;;;;;;5091624;28;20032;-50
2021/01/09 11:40:43;;;;;;;63.17;44.53;;;10.70;78.10;;;;;;5056214;28;20032;-50
2021/01/09 11:43:08;;;;;;;57.42;43.08;;;10.90;70.00;;;;;;5056055;28;20507;-48
2021/01/09 11:45:35;;;;;;;63.33;45.55;;;;;;;;;;5055576;28;20541;-50
2021/01/09 11:48:00;;;;;;;60.55;42.67;;;10.70;72.00;;;;;;5077296;28;20036;-54
2021/01/09 11:50:26;;;;;;;60.38;44.50;;;10.90;68.10;;;;;;5071366;28;20056;-57
2021/01/09 11:52:52;;;;;;;61.60;45.00;;;10.90;75.80;;;;;;5073299;28;20113;-55
2021/01/09 11:55:17;;;;;;;59.85;45.47;;;10.70;76.20;;;;;;5074874;28;20044;-58
2021/01/09 11:57:43;;;;;;;63.72;46.75;;;10.40;74.70;;;;;;5074687;28;20032;-52
2021/01/09 12:00:10;;;;;;;76.72;54.38;;;10.00;83.60;;;;;;5075077;28;20028;-55
2021/01/09 12:02:37;;;;;;;80.63;56.53;;;9.70;77.60;;;;;;5039639;28;20075;-54
2021/01/09 12:05:03;;;;;;;78.68;56.05;;;;;;;;;;5052090;28;20387;-56
2021/01/09 12:07:29;;;;;;;68.43;47.47;;;9.20;91.20;;;;;;5040102;28;20133;-55
2021/01/09 12:09:55;;;;;;;74.78;51.60;;;8.70;74.10;;;;;;5095156;28;20040;-55
2021/01/09 12:12:20;;;;;;;80.53;53.72;;;8.90;75.80;;;;;;5095168;28;20032;-54
2021/01/09 12:14:47;;;;;;;69.65;51.38;;;;;;;;;;5076459;28;20048;-57
2021/01/09 12:17:12;;;;;;;84.57;58.58;;;8.00;96.30;;;;;;5094298;28;20032;-59
2021/01/09 12:19:38;;;;;;;81.40;58.22;;;7.60;79.80;;;;;;5094921;28;20032;-53
2021/01/09 12:22:04;;;;;;;87.40;59.78;;;7.70;80.60;;;;;;5094828;28;20032;-60
2021/01/09 12:24:29;;;;;;;82.63;57.00;;;7.90;79.20;;;;;;5094856;28;20040;-56
2021/01/09 12:26:55;;;;;;;81.47;57.92;;;7.80;79.90;;;;;;5094884;28;20042;-57
2021/01/09 12:29:22;;;;;;;81.10;57.00;;;7.70;77.70;;;;;;5094698;28;20380;-57
2021/01/09 12:31:48;;;;;;;78.50;55.45;;;7.30;79.70;;;;;;5042437;28;20052;-51
2021/01/09 12:34:18;;;;;;;80.13;56.22;;;7.60;88.80;;;;;;5094660;28;20039;-57
2021/01/09 12:36:48;;;;;;;88.20;59.95;;;7.70;80.90;;;;;;5031821;28;20045;-58
2021/01/09 12:39:14;;;;;;;104.90;68.95;;;8.10;88.30;;;;;;5032261;28;20099;-53